sensor_id;sensor_type;location;lat;lon;timestamp;pressure;altitude;pressure_sealevel;temperature;humidity
39075;BME280;24826;52.070;20.970;2022-10-31T00:00:22;61539.84;;;-147.04;100.00
39075;BME280;24826;52.070;20.970;2022-10-31T00:03:26;61543.81;;;-147.04;100.00
39075;BME280;24826;52.070;20.970;2022-10-31T00:06:10;61547.78;;;-147.04;100.00
39075;BME280;24826;52.070;20.970;2022-10-31T00:08:56;61531.88;;;-147.04;100.00
39075;BME280;24826;52.070;20.970;2022-10-31T00:11:41;61527.91;;;-147.04;100.00
39075;BME280;24826;52.070;20.970;2022-10-31T00:14:26;61508.03;;;-147.04;100.00
39075;BME280;24826;52.070;20.970;2022-10-31T00:17:11;61541.81;;;-147.04;100.00
39075;BME280;24826;52.070;20.970;2022-10-31T00:19:55;61555.75;;;-147.04;100.00
39075;BME280;24826;52.070;20.970;2022-10-31T00:22:39;61527.91;;;-147.04;100.00
39075;BME280;24826;52.070;20.970;2022-10-31T00:25:24;61521.94;;;-147.04;100.00
39075;BME280;24826;52.070;20.970;2022-10-31T00:28:09;61525.91;;;-147.04;100.00
39075;BME280;24826;52.070;20.970;2022-10-31T00:30:58;61521.94;;;-147.04;100.00
39075;BME280;24826;52.070;20.970;2022-10-31T00:33:43;61551.78;;;-147.04;100.00
39075;BME280;24826;52.070;20.970;2022-10-31T00:36:27;61496.09;;;-147.04;100.00
39075;BME280;24826;52.070;20.970;2022-10-31T00:39:11;61517.97;;;-147.04;100.00
39075;BME280;24826;52.070;20.970;2022-10-31T00:41:55;61547.78;;;-147.04;100.00
39075;BME280;24826;52.070;20.970;2022-10-31T00:44:40;61527.91;;;-147.04;100.00
39075;BME280;24826;52.070;20.970;2022-10-31T00:47:24;61557.75;;;-147.04;100.00
39075;BME280;24826;52.070;20.970;2022-10-31T00:50:08;61521.94;;;-147.04;100.00
39075;BME280;24826;52.070;20.970;2022-10-31T00:52:53;61510.00;;;-147.04;100.00
39075;BME280;24826;52.070;20.970;2022-10-31T00:55:37;61514.00;;;-147.04;100.00
39075;BME280;24826;52.070;20.970;2022-10-31T00:58:21;61527.91;;;-147.04;100.00
39075;BME280;24826;52.070;20.970;2022-10-31T01:01:06;61543.81;;;-147.04;100.00
39075;BME280;24826;52.070;20.970;2022-10-31T01:03:50;61535.88;;;-147.04;100.00
39075;BME280;24826;52.070;20.970;2022-10-31T01:06:35;61488.13;;;-147.04;100.00
39075;BME280;24826;52.070;20.970;2022-10-31T01:09:19;61529.91;;;-147.04;100.00
39075;BME280;24826;52.070;20.970;2022-10-31T01:12:03;61508.03;;;-147.04;100.00
39075;BME280;24826;52.070;20.970;2022-10-31T01:14:47;61514.00;;;-147.04;100.00
39075;BME280;24826;52.070;20.970;2022-10-31T01:17:32;61508.03;;;-147.04;100.00
39075;BME280;24826;52.070;20.970;2022-10-31T01:20:17;61543.81;;;-147.04;100.00
39075;BME280;24826;52.070;20.970;2022-10-31T01:23:02;61531.88;;;-147.04;100.00
39075;BME280;24826;52.070;20.970;2022-10-31T01:25:46;61535.88;;;-147.04;100.00
39075;BME280;24826;52.070;20.970;2022-10-31T01:28:30;61539.84;;;-147.04;100.00
39075;BME280;24826;52.070;20.970;2022-10-31T01:31:16;61521.94;;;-147.04;100.00
39075;BME280;24826;52.070;20.970;2022-10-31T01:34:01;61587.56;;;-147.04;100.00
39075;BME280;24826;52.070;20.970;2022-10-31T01:36:46;61527.91;;;-147.04;100.00
39075;BME280;24826;52.070;20.970;2022-10-31T01:39:35;61500.06;;;-147.04;100.00
39075;BME280;24826;52.070;20.970;2022-10-31T01:42:20;61500.06;;;-147.04;100.00
39075;BME280;24826;52.070;20.970;2022-10-31T01:45:09;61525.91;;;-147.04;100.00
39075;BME280;24826;52.070;20.970;2022-10-31T01:47:53;61512.00;;;-147.04;100.00
39075;BME280;24826;52.070;20.970;2022-10-31T01:50:38;61494.09;;;-147.04;100.00
39075;BME280;24826;52.070;20.970;2022-10-31T01:53:24;61512.00;;;-147.04;100.00
39075;BME280;24826;52.070;20.970;2022-10-31T01:56:08;61555.75;;;-147.04;100.00
39075;BME280;24826;52.070;20.970;2022-10-31T01:58:54;61504.03;;;-147.04;100.00
39075;BME280;24826;52.070;20.970;2022-10-31T02:01:40;61527.91;;;-147.04;100.00
39075;BME280;24826;52.070;20.970;2022-10-31T02:04:24;61519.94;;;-147.04;100.00
39075;BME280;24826;52.070;20.970;2022-10-31T02:07:13;61523.94;;;-147.04;100.00
39075;BME280;24826;52.070;20.970;2022-10-31T02:09:58;61496.09;;;-147.04;100.00
39075;BME280;24826;52.070;20.970;2022-10-31T02:12:43;61521.94;;;-147.04;100.00
39075;BME280;24826;52.070;20.970;2022-10-31T02:15:29;61537.84;;;-147.04;100.00
39075;BME280;24826;52.070;20.970;2022-10-31T02:18:14;61581.59;;;-147.04;100.00
39075;BME280;24826;52.070;20.970;2022-10-31T02:24:26;61512.00;;;-147.04;100.00
39075;BME280;24826;52.070;20.970;2022-10-31T02:30:22;61547.78;;;-147.04;100.00
39075;BME280;24826;52.070;20.970;2022-10-31T02:36:45;61510.00;;;-147.04;100.00
39075;BME280;24826;52.070;20.970;2022-10-31T02:42:24;61515.97;;;-147.04;100.00
39075;BME280;24826;52.070;20.970;2022-10-31T02:45:17;61514.00;;;-147.04;100.00
39075;BME280;24826;52.070;20.970;2022-10-31T02:48:18;61512.00;;;-147.04;100.00
39075;BME280;24826;52.070;20.970;2022-10-31T02:51:04;61527.91;;;-147.04;100.00
39075;BME280;24826;52.070;20.970;2022-10-31T02:53:49;61500.06;;;-147.04;100.00
39075;BME280;24826;52.070;20.970;2022-10-31T02:56:33;61537.84;;;-147.04;100.00
39075;BME280;24826;52.070;20.970;2022-10-31T02:59:17;61492.13;;;-147.04;100.00
39075;BME280;24826;52.070;20.970;2022-10-31T03:02:15;61488.13;;;-147.04;100.00
39075;BME280;24826;52.070;20.970;2022-10-31T03:08:30;61510.00;;;-147.04;100.00
39075;BME280;24826;52.070;20.970;2022-10-31T03:11:21;61504.03;;;-147.04;100.00
39075;BME280;24826;52.070;20.970;2022-10-31T03:14:14;61478.19;;;-147.04;100.00
39075;BME280;24826;52.070;20.970;2022-10-31T03:17:05;61496.09;;;-147.04;100.00
39075;BME280;24826;52.070;20.970;2022-10-31T03:19:52;61537.84;;;-147.04;100.00
39075;BME280;24826;52.070;20.970;2022-10-31T03:22:40;61492.13;;;-147.04;100.00
39075;BME280;24826;52.070;20.970;2022-10-31T03:25:26;61543.81;;;-147.04;100.00
39075;BME280;24826;52.070;20.970;2022-10-31T03:28:12;61543.81;;;-147.04;100.00
39075;BME280;24826;52.070;20.970;2022-10-31T03:30:57;61519.94;;;-147.04;100.00
39075;BME280;24826;52.070;20.970;2022-10-31T03:33:43;61512.00;;;-147.04;100.00
39075;BME280;24826;52.070;20.970;2022-10-31T03:36:33;61512.00;;;-147.04;100.00
39075;BME280;24826;52.070;20.970;2022-10-31T03:39:20;61523.94;;;-147.04;100.00
39075;BME280;24826;52.070;20.970;2022-10-31T03:42:09;61512.00;;;-147.04;100.00
39075;BME280;24826;52.070;20.970;2022-10-31T03:45:28;61545.81;;;-147.04;100.00
39075;BME280;24826;52.070;20.970;2022-10-31T03:48:05;61490.13;;;-147.04;100.00
39075;BME280;24826;52.070;20.970;2022-10-31T03:53:46;61527.91;;;-147.04;100.00
39075;BME280;24826;52.070;20.970;2022-10-31T03:56:45;61521.94;;;-147.04;100.00
39075;BME280;24826;52.070;20.970;2022-10-31T03:59:36;61543.81;;;-147.04;100.00
39075;BME280;24826;52.070;20.970;2022-10-31T04:02:25;61523.94;;;-147.04;100.00
39075;BME280;24826;52.070;20.970;2022-10-31T04:05:11;61500.06;;;-147.04;100.00
39075;BME280;24826;52.070;20.970;2022-10-31T04:07:58;61500.06;;;-147.04;100.00
39075;BME280;24826;52.070;20.970;2022-10-31T04:10:44;61535.88;;;-147.04;100.00
39075;BME280;24826;52.070;20.970;2022-10-31T04:13:33;61506.03;;;-147.04;100.00
39075;BME280;24826;52.070;20.970;2022-10-31T04:16:20;61521.94;;;-147.04;100.00
39075;BME280;24826;52.070;20.970;2022-10-31T04:19:05;61496.09;;;-147.04;100.00
39075;BME280;24826;52.070;20.970;2022-10-31T04:21:50;61508.03;;;-147.04;100.00
39075;BME280;24826;52.070;20.970;2022-10-31T04:24:37;61508.03;;;-147.04;100.00
39075;BME280;24826;52.070;20.970;2022-10-31T04:27:22;61517.97;;;-147.04;100.00
39075;BME280;24826;52.070;20.970;2022-10-31T04:30:07;61515.97;;;-147.04;100.00
39075;BME280;24826;52.070;20.970;2022-10-31T04:32:51;61504.03;;;-147.04;100.00
39075;BME280;24826;52.070;20.970;2022-10-31T04:35:35;61496.09;;;-147.04;100.00
39075;BME280;24826;52.070;20.970;2022-10-31T04:38:19;61502.06;;;-147.04;100.00
39075;BME280;24826;52.070;20.970;2022-10-31T04:41:04;61492.13;;;-147.04;100.00
39075;BME280;24826;52.070;20.970;2022-10-31T04:43:48;61521.94;;;-147.04;100.00
39075;BME280;24826;52.070;20.970;2022-10-31T04:46:32;61494.09;;;-147.04;100.00
39075;BME280;24826;52.070;20.970;2022-10-31T04:49:16;61496.09;;;-147.04;100.00
39075;BME280;24826;52.070;20.970;2022-10-31T04:52:01;61496.09;;;-147.04;100.00
39075;BME280;24826;52.070;20.970;2022-10-31T04:54:45;61502.06;;;-147.04;100.00
39075;BME280;24826;52.070;20.970;2022-10-31T04:57:30;61525.91;;;-147.04;100.00
39075;BME280;24826;52.070;20.970;2022-10-31T05:00:17;61510.00;;;-147.04;100.00
39075;BME280;24826;52.070;20.970;2022-10-31T05:03:02;61515.97;;;-147.04;100.00
39075;BME280;24826;52.070;20.970;2022-10-31T05:05:46;61498.09;;;-147.04;100.00
39075;BME280;24826;52.070;20.970;2022-10-31T05:08:30;61690.97;;;-147.04;100.00
39075;BME280;24826;52.070;20.970;2022-10-31T05:11:14;61515.97;;;-147.04;100.00
39075;BME280;24826;52.070;20.970;2022-10-31T05:13:59;61514.00;;;-147.04;100.00
39075;BME280;24826;52.070;20.970;2022-10-31T05:16:43;61496.09;;;-147.04;100.00
39075;BME280;24826;52.070;20.970;2022-10-31T05:19:27;61508.03;;;-147.04;100.00
39075;BME280;24826;52.070;20.970;2022-10-31T05:22:11;61523.94;;;-147.04;100.00
39075;BME280;24826;52.070;20.970;2022-10-31T05:24:56;61515.97;;;-147.04;100.00
39075;BME280;24826;52.070;20.970;2022-10-31T05:27:41;61502.06;;;-147.04;100.00
39075;BME280;24826;52.070;20.970;2022-10-31T05:30:28;61512.00;;;-147.04;100.00
39075;BME280;24826;52.070;20.970;2022-10-31T05:33:13;61504.03;;;-147.04;100.00
39075;BME280;24826;52.070;20.970;2022-10-31T05:35:57;61512.00;;;-147.04;100.00
39075;BME280;24826;52.070;20.970;2022-10-31T05:38:41;61492.13;;;-147.04;100.00
39075;BME280;24826;52.070;20.970;2022-10-31T05:41:26;61488.13;;;-147.04;100.00
39075;BME280;24826;52.070;20.970;2022-10-31T05:44:10;61504.03;;;-147.04;100.00
39075;BME280;24826;52.070;20.970;2022-10-31T05:46:54;61488.13;;;-147.04;100.00
39075;BME280;24826;52.070;20.970;2022-10-31T05:49:38;61523.94;;;-147.04;100.00
39075;BME280;24826;52.070;20.970;2022-10-31T05:52:23;61496.09;;;-147.04;100.00
39075;BME280;24826;52.070;20.970;2022-10-31T05:55:07;61496.09;;;-147.04;100.00
39075;BME280;24826;52.070;20.970;2022-10-31T05:57:53;61504.03;;;-147.04;100.00
39075;BME280;24826;52.070;20.970;2022-10-31T06:00:37;61508.03;;;-147.04;100.00
39075;BME280;24826;52.070;20.970;2022-10-31T06:03:22;61480.19;;;-147.04;100.00
39075;BME280;24826;52.070;20.970;2022-10-31T06:06:06;61500.06;;;-147.04;100.00
39075;BME280;24826;52.070;20.970;2022-10-31T06:08:50;61442.41;;;-147.04;100.00
39075;BME280;24826;52.070;20.970;2022-10-31T06:11:34;61484.16;;;-147.04;100.00
39075;BME280;24826;52.070;20.970;2022-10-31T06:14:19;61508.03;;;-147.04;100.00
39075;BME280;24826;52.070;20.970;2022-10-31T06:17:03;61517.97;;;-147.04;100.00
39075;BME280;24826;52.070;20.970;2022-10-31T06:19:48;61412.56;;;-147.04;100.00
39075;BME280;24826;52.070;20.970;2022-10-31T06:22:32;61498.09;;;-147.04;100.00
39075;BME280;24826;52.070;20.970;2022-10-31T06:25:17;61609.44;;;-147.04;100.00
39075;BME280;24826;52.070;20.970;2022-10-31T06:28:01;61512.00;;;-147.04;100.00
39075;BME280;24826;52.070;20.970;2022-10-31T06:30:46;61615.41;;;-147.04;100.00
39075;BME280;24826;52.070;20.970;2022-10-31T06:33:30;61492.13;;;-147.04;100.00
39075;BME280;24826;52.070;20.970;2022-10-31T06:36:15;61591.53;;;-147.04;100.00
39075;BME280;24826;52.070;20.970;2022-10-31T06:39:00;61515.97;;;-147.04;100.00
39075;BME280;24826;52.070;20.970;2022-10-31T06:41:47;61504.03;;;-147.04;100.00
39075;BME280;24826;52.070;20.970;2022-10-31T06:44:32;61551.78;;;-147.04;100.00
39075;BME280;24826;52.070;20.970;2022-10-31T06:47:16;61539.84;;;-147.04;100.00
39075;BME280;24826;52.070;20.970;2022-10-31T06:50:00;61517.97;;;-147.04;100.00
39075;BME280;24826;52.070;20.970;2022-10-31T06:52:53;61559.72;;;-147.04;100.00
39075;BME280;24826;52.070;20.970;2022-10-31T06:55:37;61639.25;;;-147.04;100.00
39075;BME280;24826;52.070;20.970;2022-10-31T06:58:21;61547.78;;;-147.04;100.00
39075;BME280;24826;52.070;20.970;2022-10-31T07:01:05;61543.81;;;-147.04;100.00
39075;BME280;24826;52.070;20.970;2022-10-31T07:03:50;61535.88;;;-147.04;100.00
39075;BME280;24826;52.070;20.970;2022-10-31T07:06:34;61549.78;;;-147.04;100.00
39075;BME280;24826;52.070;20.970;2022-10-31T07:09:19;61531.88;;;-147.04;100.00
39075;BME280;24826;52.070;20.970;2022-10-31T07:12:03;61535.88;;;-147.04;100.00
39075;BME280;24826;52.070;20.970;2022-10-31T07:14:48;61535.88;;;-147.04;100.00
39075;BME280;24826;52.070;20.970;2022-10-31T07:17:32;61577.63;;;-147.04;100.00
39075;BME280;24826;52.070;20.970;2022-10-31T07:20:16;61531.88;;;-147.04;100.00
39075;BME280;24826;52.070;20.970;2022-10-31T07:23:01;61508.03;;;-147.04;100.00
39075;BME280;24826;52.070;20.970;2022-10-31T07:25:45;61569.66;;;-147.04;100.00
39075;BME280;24826;52.070;20.970;2022-10-31T07:28:29;61559.72;;;-147.04;100.00
39075;BME280;24826;52.070;20.970;2022-10-31T07:31:14;61553.75;;;-147.04;100.00
39075;BME280;24826;52.070;20.970;2022-10-31T07:33:58;61543.81;;;-147.04;100.00
39075;BME280;24826;52.070;20.970;2022-10-31T07:36:43;61555.75;;;-147.04;100.00
39075;BME280;24826;52.070;20.970;2022-10-31T07:39:27;61555.75;;;-147.04;100.00
39075;BME280;24826;52.070;20.970;2022-10-31T07:42:11;61728.75;;;-147.04;100.00
39075;BME280;24826;52.070;20.970;2022-10-31T07:44:55;61563.69;;;-147.04;100.00
39075;BME280;24826;52.070;20.970;2022-10-31T07:47:48;61583.59;;;-147.04;100.00
39075;BME280;24826;52.070;20.970;2022-10-31T07:50:33;61571.66;;;-147.04;100.00
39075;BME280;24826;52.070;20.970;2022-10-31T07:53:21;61577.63;;;-147.04;100.00
39075;BME280;24826;52.070;20.970;2022-10-31T07:56:05;61579.59;;;-147.04;100.00
39075;BME280;24826;52.070;20.970;2022-10-31T07:58:49;61583.59;;;-147.04;100.00
39075;BME280;24826;52.070;20.970;2022-10-31T08:01:33;61591.53;;;-147.04;100.00
39075;BME280;24826;52.070;20.970;2022-10-31T08:04:18;61605.47;;;-147.04;100.00
39075;BME280;24826;52.070;20.970;2022-10-31T08:07:02;61601.47;;;-147.04;100.00
39075;BME280;24826;52.070;20.970;2022-10-31T08:09:47;61587.56;;;-147.04;100.00
39075;BME280;24826;52.070;20.970;2022-10-31T08:12:31;61623.34;;;-147.04;100.00
39075;BME280;24826;52.070;20.970;2022-10-31T08:15:15;61585.56;;;-147.04;100.00
39075;BME280;24826;52.070;20.970;2022-10-31T08:17:59;61611.44;;;-147.04;100.00
39075;BME280;24826;52.070;20.970;2022-10-31T08:20:44;61571.66;;;-147.04;100.00
39075;BME280;24826;52.070;20.970;2022-10-31T08:23:28;61619.38;;;-147.04;100.00
39075;BME280;24826;52.070;20.970;2022-10-31T08:26:12;61599.50;;;-147.04;100.00
39075;BME280;24826;52.070;20.970;2022-10-31T08:28:57;61619.38;;;-147.04;100.00
39075;BME280;24826;52.070;20.970;2022-10-31T08:31:42;61617.38;;;-147.04;100.00
39075;BME280;24826;52.070;20.970;2022-10-31T08:34:26;61623.34;;;-147.04;100.00
39075;BME280;24826;52.070;20.970;2022-10-31T08:37:10;61635.28;;;-147.04;100.00
39075;BME280;24826;52.070;20.970;2022-10-31T08:39:55;61639.25;;;-147.04;100.00
39075;BME280;24826;52.070;20.970;2022-10-31T08:42:39;61627.34;;;-147.04;100.00
39075;BME280;24826;52.070;20.970;2022-10-31T08:45:24;61643.25;;;-147.04;100.00
39075;BME280;24826;52.070;20.970;2022-10-31T08:48:11;61665.13;;;-147.04;100.00
39075;BME280;24826;52.070;20.970;2022-10-31T08:50:56;61635.28;;;-147.04;100.00
39075;BME280;24826;52.070;20.970;2022-10-31T08:53:42;61639.25;;;-147.04;100.00
39075;BME280;24826;52.070;20.970;2022-10-31T08:56:26;61653.19;;;-147.04;100.00
39075;BME280;24826;52.070;20.970;2022-10-31T08:59:10;61645.22;;;-147.04;100.00
39075;BME280;24826;52.070;20.970;2022-10-31T09:01:55;61675.06;;;-147.04;100.00
39075;BME280;24826;52.070;20.970;2022-10-31T09:04:39;61643.25;;;-147.04;100.00
39075;BME280;24826;52.070;20.970;2022-10-31T09:07:23;61683.00;;;-147.04;100.00
39075;BME280;24826;52.070;20.970;2022-10-31T09:10:08;61653.19;;;-147.04;100.00
39075;BME280;24826;52.070;20.970;2022-10-31T09:13:00;61673.06;;;-147.04;100.00
39075;BME280;24826;52.070;20.970;2022-10-31T09:15:47;61623.34;;;-147.04;100.00
39075;BME280;24826;52.070;20.970;2022-10-31T09:18:32;61669.09;;;-147.04;100.00
39075;BME280;24826;52.070;20.970;2022-10-31T09:21:16;61774.50;;;-147.04;100.00
39075;BME280;24826;52.070;20.970;2022-10-31T09:24:00;61671.09;;;-147.04;100.00
39075;BME280;24826;52.070;20.970;2022-10-31T09:26:45;61645.22;;;-147.04;100.00
39075;BME280;24826;52.070;20.970;2022-10-31T09:29:29;61657.16;;;-147.04;100.00
39075;BME280;24826;52.070;20.970;2022-10-31T09:32:14;61681.03;;;-147.04;100.00
39075;BME280;24826;52.070;20.970;2022-10-31T09:34:58;61657.16;;;-147.04;100.00
39075;BME280;24826;52.070;20.970;2022-10-31T09:37:42;61651.19;;;-147.04;100.00
39075;BME280;24826;52.070;20.970;2022-10-31T09:40:38;61677.03;;;-147.04;100.00
39075;BME280;24826;52.070;20.970;2022-10-31T09:46:46;61687.00;;;-147.04;100.00
39075;BME280;24826;52.070;20.970;2022-10-31T09:52:36;61657.16;;;-147.04;100.00
39075;BME280;24826;52.070;20.970;2022-10-31T09:55:31;61659.16;;;-147.04;100.00
39075;BME280;24826;52.070;20.970;2022-10-31T09:58:23;61683.00;;;-147.04;100.00
39075;BME280;24826;52.070;20.970;2022-10-31T10:01:27;61694.94;;;-147.04;100.00
39075;BME280;24826;52.070;20.970;2022-10-31T10:07:33;61690.97;;;-147.04;100.00
39075;BME280;24826;52.070;20.970;2022-10-31T10:13:41;61675.06;;;-147.04;100.00
39075;BME280;24826;52.070;20.970;2022-10-31T10:25:38;61687.00;;;-147.04;100.00
39075;BME280;24826;52.070;20.970;2022-10-31T10:28:35;61694.94;;;-147.04;100.00
39075;BME280;24826;52.070;20.970;2022-10-31T10:31:27;61643.25;;;-147.04;100.00
39075;BME280;24826;52.070;20.970;2022-10-31T10:34:29;61687.00;;;-147.04;100.00
39075;BME280;24826;52.070;20.970;2022-10-31T10:37:23;61696.94;;;-147.04;100.00
39075;BME280;24826;52.070;20.970;2022-10-31T10:40:18;61694.94;;;-147.04;100.00
39075;BME280;24826;52.070;20.970;2022-10-31T10:43:20;61698.91;;;-147.04;100.00
39075;BME280;24826;52.070;20.970;2022-10-31T10:49:26;61708.88;;;-147.04;100.00
39075;BME280;24826;52.070;20.970;2022-10-31T10:52:36;61683.00;;;-147.04;100.00
39075;BME280;24826;52.070;20.970;2022-10-31T10:55:33;61700.91;;;-147.04;100.00
39075;BME280;24826;52.070;20.970;2022-10-31T10:58:20;61679.03;;;-147.04;100.00
39075;BME280;24826;52.070;20.970;2022-10-31T11:01:11;61702.91;;;-147.04;100.00
39075;BME280;24826;52.070;20.970;2022-10-31T11:03:56;61706.88;;;-147.04;100.00
39075;BME280;24826;52.070;20.970;2022-10-31T11:06:40;61712.84;;;-147.04;100.00
39075;BME280;24826;52.070;20.970;2022-10-31T11:09:25;61696.94;;;-147.04;100.00
39075;BME280;24826;52.070;20.970;2022-10-31T11:12:22;61714.84;;;-147.04;100.00
39075;BME280;24826;52.070;20.970;2022-10-31T11:15:18;61718.81;;;-147.04;100.00
39075;BME280;24826;52.070;20.970;2022-10-31T11:18:04;61714.84;;;-147.04;100.00
39075;BME280;24826;52.070;20.970;2022-10-31T11:20:52;61700.91;;;-147.04;100.00
39075;BME280;24826;52.070;20.970;2022-10-31T11:23:37;61742.66;;;-147.04;100.00
39075;BME280;24826;52.070;20.970;2022-10-31T11:26:21;61734.72;;;-147.04;100.00
39075;BME280;24826;52.070;20.970;2022-10-31T11:29:14;61740.69;;;-147.04;100.00
39075;BME280;24826;52.070;20.970;2022-10-31T11:32:00;61714.84;;;-147.04;100.00
39075;BME280;24826;52.070;20.970;2022-10-31T11:34:46;61726.75;;;-147.04;100.00
39075;BME280;24826;52.070;20.970;2022-10-31T11:37:35;61722.78;;;-147.04;100.00
39075;BME280;24826;52.070;20.970;2022-10-31T11:40:26;61728.75;;;-147.04;100.00
39075;BME280;24826;52.070;20.970;2022-10-31T11:43:17;61710.84;;;-147.04;100.00
39075;BME280;24826;52.070;20.970;2022-10-31T11:46:10;61766.53;;;-147.04;100.00
39075;BME280;24826;52.070;20.970;2022-10-31T11:48:56;61748.63;;;-147.04;100.00
39075;BME280;24826;52.070;20.970;2022-10-31T11:51:40;61720.78;;;-147.04;100.00
39075;BME280;24826;52.070;20.970;2022-10-31T11:54:38;61716.81;;;-147.04;100.00
39075;BME280;24826;52.070;20.970;2022-10-31T11:57:30;61722.78;;;-147.04;100.00
39075;BME280;24826;52.070;20.970;2022-10-31T12:00:38;61744.66;;;-147.04;100.00
39075;BME280;24826;52.070;20.970;2022-10-31T12:03:37;61734.72;;;-147.04;100.00
39075;BME280;24826;52.070;20.970;2022-10-31T12:06:31;61734.72;;;-147.04;100.00
39075;BME280;24826;52.070;20.970;2022-10-31T12:09:32;61760.56;;;-147.04;100.00
39075;BME280;24826;52.070;20.970;2022-10-31T12:12:39;61768.53;;;-147.04;100.00
39075;BME280;24826;52.070;20.970;2022-10-31T12:15:36;61778.47;;;-147.04;100.00
39075;BME280;24826;52.070;20.970;2022-10-31T12:21:38;61710.84;;;-147.04;100.00
39075;BME280;24826;52.070;20.970;2022-10-31T12:35:54;61766.53;;;-147.04;100.00
39075;BME280;24826;52.070;20.970;2022-10-31T12:51:47;61782.44;;;-147.04;100.00
39075;BME280;24826;52.070;20.970;2022-10-31T12:57:31;61764.53;;;-147.04;100.00
39075;BME280;24826;52.070;20.970;2022-10-31T13:00:18;61820.22;;;-147.04;100.00
39075;BME280;24826;52.070;20.970;2022-10-31T13:03:29;61826.19;;;-147.04;100.00
39075;BME280;24826;52.070;20.970;2022-10-31T13:06:19;61754.59;;;-147.04;100.00
39075;BME280;24826;52.070;20.970;2022-10-31T13:09:09;61728.75;;;-147.04;100.00
39075;BME280;24826;52.070;20.970;2022-10-31T13:12:02;61756.59;;;-147.04;100.00
39075;BME280;24826;52.070;20.970;2022-10-31T13:14:52;61790.41;;;-147.04;100.00
39075;BME280;24826;52.070;20.970;2022-10-31T13:17:50;61722.78;;;-147.04;100.00
39075;BME280;24826;52.070;20.970;2022-10-31T13:20:43;61762.56;;;-147.04;100.00
39075;BME280;24826;52.070;20.970;2022-10-31T13:23:30;61786.41;;;-147.04;100.00
39075;BME280;24826;52.070;20.970;2022-10-31T13:26:24;61742.66;;;-147.04;100.00
39075;BME280;24826;52.070;20.970;2022-10-31T13:32:11;61746.66;;;-147.04;100.00
39075;BME280;24826;52.070;20.970;2022-10-31T13:34:57;61782.44;;;-147.04;100.00
39075;BME280;24826;52.070;20.970;2022-10-31T13:37:48;61804.31;;;-147.04;100.00
39075;BME280;24826;52.070;20.970;2022-10-31T13:40:41;61746.66;;;-147.04;100.00
39075;BME280;24826;52.070;20.970;2022-10-31T13:43:51;61762.56;;;-147.04;100.00
39075;BME280;24826;52.070;20.970;2022-10-31T13:46:42;61794.38;;;-147.04;100.00
39075;BME280;24826;52.070;20.970;2022-10-31T13:52:23;61788.41;;;-147.04;100.00
39075;BME280;24826;52.070;20.970;2022-10-31T13:55:39;61796.38;;;-147.04;100.00
39075;BME280;24826;52.070;20.970;2022-10-31T13:58:26;61782.44;;;-147.04;100.00
39075;BME280;24826;52.070;20.970;2022-10-31T14:03:59;61818.25;;;-147.04;100.00
39075;BME280;24826;52.070;20.970;2022-10-31T14:07:13;61824.19;;;-147.04;100.00
39075;BME280;24826;52.070;20.970;2022-10-31T14:10:16;61792.38;;;-147.04;100.00
39075;BME280;24826;52.070;20.970;2022-10-31T14:13:13;61760.56;;;-147.04;100.00
39075;BME280;24826;52.070;20.970;2022-10-31T14:16:02;61828.19;;;-147.04;100.00
39075;BME280;24826;52.070;20.970;2022-10-31T14:18:51;61788.41;;;-147.04;100.00
39075;BME280;24826;52.070;20.970;2022-10-31T14:21:47;61768.53;;;-147.04;100.00
39075;BME280;24826;52.070;20.970;2022-10-31T14:24:34;61826.19;;;-147.04;100.00
39075;BME280;24826;52.070;20.970;2022-10-31T14:30:17;61790.41;;;-147.04;100.00
39075;BME280;24826;52.070;20.970;2022-10-31T14:33:13;61752.63;;;-147.04;100.00
39075;BME280;24826;52.070;20.970;2022-10-31T14:36:07;61774.50;;;-147.04;100.00
39075;BME280;24826;52.070;20.970;2022-10-31T14:39:08;61802.31;;;-147.04;100.00
39075;BME280;24826;52.070;20.970;2022-10-31T14:42:18;61796.38;;;-147.04;100.00
39075;BME280;24826;52.070;20.970;2022-10-31T14:45:24;61784.44;;;-147.04;100.00
39075;BME280;24826;52.070;20.970;2022-10-31T14:50:58;61722.78;;;-147.04;100.00
39075;BME280;24826;52.070;20.970;2022-10-31T14:53:49;61758.59;;;-147.04;100.00
39075;BME280;24826;52.070;20.970;2022-10-31T14:56:36;61768.53;;;-147.04;100.00
39075;BME280;24826;52.070;20.970;2022-10-31T14:59:25;61881.88;;;-147.04;100.00
39075;BME280;24826;52.070;20.970;2022-10-31T15:05:19;61780.47;;;-147.04;100.00
39075;BME280;24826;52.070;20.970;2022-10-31T15:08:04;61758.59;;;-147.04;100.00
39075;BME280;24826;52.070;20.970;2022-10-31T15:10:49;61806.31;;;-147.04;100.00
39075;BME280;24826;52.070;20.970;2022-10-31T15:13:33;61802.31;;;-147.04;100.00
39075;BME280;24826;52.070;20.970;2022-10-31T15:16:21;61756.59;;;-147.04;100.00
39075;BME280;24826;52.070;20.970;2022-10-31T15:19:10;61796.38;;;-147.04;100.00
39075;BME280;24826;52.070;20.970;2022-10-31T15:21:57;61758.59;;;-147.04;100.00
39075;BME280;24826;52.070;20.970;2022-10-31T15:24:42;61766.53;;;-147.04;100.00
39075;BME280;24826;52.070;20.970;2022-10-31T15:27:26;61742.66;;;-147.04;100.00
39075;BME280;24826;52.070;20.970;2022-10-31T15:30:20;61802.31;;;-147.04;100.00
39075;BME280;24826;52.070;20.970;2022-10-31T15:33:19;61742.66;;;-147.04;100.00
39075;BME280;24826;52.070;20.970;2022-10-31T15:36:04;61750.63;;;-147.04;100.00